Missoula, MT

12:23 PM MDT on September 03, 2015 (GMT -0600)
Missoula International | | Change Station
CLOSE
Current Station
Airport
Location: Missoula,
Elevation: 3189 ft
Nearby Weather Stations

Elev 3189 ft 46.92 °N, 114.09 °W | Updated 30 minutes ago

Overcast
Overcast
51 °F
Feels Like 51 °F
N
6
Wind Variable Wind from NW

Today
High -- | Low -- °F
--% Chance of Precip.
Yesterday
High -- | Low -- °F
Precip. -- in
6:58 AM 8:12 PM
Waning Gibbous, 68% visible
Pressure 29.98 in
Visibility 10.0 miles
Clouds Few 4700 ft
Overcast 9000 ft
Dew Point 46 °F
Humidity 83%
Rainfall 0.15 in
Snow Depth Not available.
UV 2 out of 12
Pollen 4.40 out of 12
Air Quality Not available.
Flu Activity Not available.
METAR KMSO 031753Z 31005KT 10SM FEW047 OVC090 11/08 A2998 RMK AO2 RAE20 SLP150 P0000 60001 T01060078 10106 20100 50007
Pressure 29.98 in
Visibility 10.0 miles
Clouds Few 4700 ft
Overcast 9000 ft
Dew Point 46 °F
Humidity 83%
Rainfall 0.15 in
Snow Depth Not available.
UV 2 out of 12
Pollen 4.40 out of 12
Air Quality Not available.
Flu Activity Not available.
METAR KMSO 031753Z 31005KT 10SM FEW047 OVC090 11/08 A2998 RMK AO2 RAE20 SLP150 P0000 60001 T01060078 10106 20100 50007

10-Day Weather Forecast

×

Almanac

Astronomy

Sep. 03, 2015 Rise Set
Actual Time
Civil Twilight
Nautical Twilight
Astronomical Twilight
Moon
Length of Visible Light
Length of Day
Tomorrow will be .
, % of the Moon is Illuminated

Today's Extremes

State Highs State Lows

Community

WunderPhotos

Upload Photos

1,851,999 photos uploaded!

WunderBlogs® & News

Nearby

Air Quality

  Air Quality AQ Index Pollutant
Not available.

Snow Depth

Station Depth Elevation

Earthquake Activity

City Distance Mag. Time & Date
Minimum magnitude displayed is 2.5.

Coastal Water Temperatures

Place Temperature

Stations

Nearby Weather Stations

Station Location Temp. Windchill Dew Point Humidity Wind Precip. Elev Updated Type